createdAt,value
2022-11-29T00:02:10.318Z,91.86
2022-11-29T00:05:12.857Z,91.96
2022-11-29T00:08:16.679Z,91.73
2022-11-29T00:11:39.899Z,90.55
2022-11-29T00:14:42.910Z,90.32
2022-11-29T00:17:45.551Z,91.42
2022-11-29T00:20:48.000Z,91.11
2022-11-29T00:23:51.840Z,91.34
2022-11-29T00:26:54.272Z,90.62
2022-11-29T00:29:56.722Z,91.37
2022-11-29T00:32:59.163Z,90.17
2022-11-29T00:36:01.646Z,89.94
2022-11-29T00:39:06.675Z,90.30
2022-11-29T00:42:09.105Z,89.16
2022-11-29T00:45:12.109Z,89.63
2022-11-29T00:48:14.511Z,89.97
2022-11-29T00:51:16.955Z,90.27
2022-11-29T00:54:20.737Z,91.23
2022-11-29T00:57:23.303Z,91.81
2022-11-29T01:00:25.731Z,91.51
2022-11-29T01:03:28.252Z,91.43
2022-11-29T01:06:30.816Z,91.87
2022-11-29T01:09:34.563Z,91.76
2022-11-29T01:12:38.138Z,91.14
2022-11-29T01:15:41.284Z,91.38
2022-11-29T01:18:44.398Z,90.73
2022-11-29T01:21:46.763Z,91.91
2022-11-29T01:24:50.655Z,90.77
2022-11-29T01:27:54.267Z,91.67
2022-11-29T01:30:57.061Z,91.63
2022-11-29T01:34:01.244Z,91.50
2022-11-29T01:37:03.696Z,91.67
2022-11-29T01:40:08.825Z,91.09
2022-11-29T01:43:16.203Z,92.55
2022-11-29T01:46:18.840Z,91.40
2022-11-29T01:49:27.141Z,91.58
2022-11-29T01:52:32.663Z,92.35
2022-11-29T01:55:40.559Z,92.35
2022-11-29T01:58:45.103Z,92.47
2022-11-29T02:01:47.663Z,92.43
2022-11-29T02:04:50.543Z,92.56
2022-11-29T02:07:56.259Z,92.74
2022-11-29T02:11:26.210Z,92.07
2022-11-29T02:14:47.458Z,92.36
2022-11-29T02:18:02.694Z,92.22
2022-11-29T02:21:20.493Z,91.89
2022-11-29T02:24:50.565Z,91.96
2022-11-29T02:28:43.379Z,92.29
2022-11-29T02:32:27.904Z,92.44
2022-11-29T02:36:08.558Z,92.71
2022-11-29T02:39:52.976Z,92.06
2022-11-29T02:43:12.020Z,93.12
2022-11-29T02:46:44.303Z,91.88
2022-11-29T02:50:09.000Z,92.00
2022-11-29T02:53:18.651Z,92.95
2022-11-29T02:56:27.220Z,92.85
2022-11-29T02:59:42.748Z,92.16
2022-11-29T03:02:53.866Z,92.18
2022-11-29T03:06:07.948Z,94.20
2022-11-29T03:09:19.177Z,94.21
2022-11-29T03:12:32.435Z,93.79
2022-11-29T03:15:41.732Z,94.66
2022-11-29T03:18:58.053Z,94.25
2022-11-29T03:22:10.783Z,93.70
2022-11-29T03:25:22.932Z,93.49
2022-11-29T03:28:31.834Z,93.75
2022-11-29T03:31:39.718Z,94.82
2022-11-29T03:34:58.302Z,93.88
2022-11-29T03:38:09.464Z,94.30
2022-11-29T03:41:20.926Z,94.78
2022-11-29T03:44:28.279Z,94.63
2022-11-29T03:47:36.682Z,94.91
2022-11-29T03:50:43.331Z,94.09
2022-11-29T03:53:50.663Z,95.68
2022-11-29T03:56:55.398Z,94.14
2022-11-29T04:00:05.701Z,94.06
2022-11-29T04:03:49.242Z,93.87
2022-11-29T04:07:06.896Z,93.83
2022-11-29T04:10:19.766Z,95.33
2022-11-29T04:13:57.797Z,94.52
2022-11-29T04:17:29.508Z,95.02
2022-11-29T04:21:12.718Z,94.40
2022-11-29T04:25:03.549Z,95.30
2022-11-29T04:28:48.704Z,95.42
2022-11-29T04:32:14.699Z,95.33
2022-11-29T04:35:32.732Z,94.75
2022-11-29T04:39:00.715Z,95.97
2022-11-29T04:42:36.744Z,94.82
2022-11-29T04:46:05.407Z,95.57
2022-11-29T04:49:37.313Z,94.06
2022-11-29T04:52:56.606Z,94.08
2022-11-29T04:56:11.475Z,94.70
2022-11-29T04:59:21.558Z,94.87
2022-11-29T05:02:33.145Z,95.32
2022-11-29T05:05:43.333Z,94.42
2022-11-29T05:08:52.609Z,94.68
2022-11-29T05:12:08.091Z,94.62
2022-11-29T05:15:38.366Z,95.17
2022-11-29T05:19:04.755Z,94.85
2022-11-29T05:22:22.536Z,94.41
2022-11-29T05:25:37.170Z,94.23
2022-11-29T05:28:50.281Z,93.45
2022-11-29T05:32:21.133Z,92.48
2022-11-29T05:36:02.116Z,92.72
2022-11-29T05:39:25.935Z,93.07
2022-11-29T05:43:04.040Z,93.11
2022-11-29T05:46:12.817Z,93.80
2022-11-29T05:49:24.089Z,93.57
2022-11-29T05:52:39.493Z,93.50
2022-11-29T05:55:53.061Z,93.04
2022-11-29T05:59:00.005Z,92.99
2022-11-29T06:02:10.000Z,92.78
2022-11-29T06:05:20.445Z,92.82
2022-11-29T06:08:34.199Z,92.56
2022-11-29T06:11:44.947Z,92.71
2022-11-29T06:15:17.324Z,92.59
2022-11-29T06:18:40.564Z,92.26
2022-11-29T06:21:50.644Z,92.11
2022-11-29T06:25:12.130Z,92.07
2022-11-29T06:28:28.488Z,92.12
2022-11-29T06:31:34.378Z,91.94
2022-11-29T06:34:45.402Z,91.80
2022-11-29T06:37:51.147Z,92.29
2022-11-29T06:41:01.567Z,92.15
2022-11-29T06:44:19.157Z,91.63
2022-11-29T06:47:28.527Z,90.76
2022-11-29T06:51:03.141Z,90.25
2022-11-29T06:54:17.300Z,90.83
2022-11-29T06:57:25.854Z,90.35
2022-11-29T07:00:39.394Z,92.06
2022-11-29T07:03:54.372Z,91.38
2022-11-29T07:06:57.341Z,92.21
2022-11-29T07:10:02.933Z,92.11
2022-11-29T07:13:05.945Z,92.17
2022-11-29T07:16:17.393Z,91.22
2022-11-29T07:19:33.208Z,91.41
2022-11-29T07:22:56.282Z,91.55
2022-11-29T07:26:09.841Z,91.02
2022-11-29T07:29:24.602Z,91.20
2022-11-29T07:32:40.162Z,91.25
2022-11-29T07:35:50.339Z,90.87
2022-11-29T07:39:01.693Z,91.91
2022-11-29T07:42:11.949Z,90.85
2022-11-29T07:45:21.430Z,91.57
2022-11-29T07:52:04.609Z,90.85
2022-11-29T07:55:17.096Z,91.06
2022-11-29T07:58:21.190Z,91.01
2022-11-29T08:01:23.855Z,91.90
2022-11-29T08:04:27.855Z,92.05
2022-11-29T08:07:30.804Z,91.53
2022-11-29T08:10:34.605Z,90.18
2022-11-29T08:13:43.949Z,90.10
2022-11-29T08:16:49.319Z,89.50
2022-11-29T08:19:54.347Z,90.33
2022-11-29T08:22:59.171Z,89.69
2022-11-29T08:26:02.520Z,91.66
2022-11-29T08:29:05.210Z,89.89
2022-11-29T08:32:08.998Z,90.43
2022-11-29T08:35:14.647Z,92.19
2022-11-29T08:38:17.231Z,90.89
2022-11-29T08:41:19.659Z,91.14
2022-11-29T08:44:22.342Z,90.02
2022-11-29T08:47:36.754Z,90.03
2022-11-29T08:50:41.045Z,89.96
2022-11-29T08:53:44.649Z,91.89
2022-11-29T08:57:31.048Z,91.71
2022-11-29T09:00:11.192Z,91.38
2022-11-29T09:03:32.105Z,91.69
2022-11-29T09:06:40.194Z,91.13
2022-11-29T09:09:42.887Z,91.05
2022-11-29T09:12:45.788Z,90.48
2022-11-29T09:15:48.490Z,89.51
2022-11-29T09:18:55.940Z,89.84
2022-11-29T09:21:59.959Z,90.21
2022-11-29T09:25:02.431Z,88.63
2022-11-29T09:28:05.775Z,89.15
2022-11-29T09:31:10.362Z,89.20
2022-11-29T09:34:13.602Z,88.10
2022-11-29T09:37:17.438Z,87.81
2022-11-29T09:40:25.916Z,87.44
2022-11-29T09:43:38.934Z,88.98
2022-11-29T09:46:52.242Z,89.66
2022-11-29T09:50:16.767Z,89.52
2022-11-29T09:53:38.151Z,89.83
2022-11-29T09:56:47.329Z,89.13
2022-11-29T09:59:53.049Z,88.72
2022-11-29T10:03:02.149Z,88.38
2022-11-29T10:06:11.651Z,88.35
2022-11-29T10:09:22.509Z,88.72
2022-11-29T10:12:35.088Z,89.63
2022-11-29T10:15:43.205Z,88.73
2022-11-29T10:18:50.467Z,88.18
2022-11-29T10:22:01.928Z,87.24
2022-11-29T10:25:10.659Z,88.44
2022-11-29T10:28:15.798Z,88.23
2022-11-29T10:31:21.960Z,87.93
2022-11-29T10:34:26.622Z,89.10
2022-11-29T10:37:32.731Z,90.29
2022-11-29T10:40:39.805Z,91.08
2022-11-29T10:43:43.184Z,89.30
2022-11-29T10:46:45.647Z,89.43
2022-11-29T10:49:48.501Z,88.17
2022-11-29T10:52:53.629Z,88.22
2022-11-29T10:56:06.033Z,88.17
2022-11-29T10:59:20.244Z,87.68
2022-11-29T11:02:24.290Z,87.50
2022-11-29T11:05:27.240Z,87.72
2022-11-29T11:08:32.609Z,88.38
2022-11-29T11:11:36.948Z,87.29
2022-11-29T11:14:39.557Z,87.67
2022-11-29T11:17:59.617Z,87.68
2022-11-29T11:24:32.142Z,87.06
2022-11-29T11:27:40.331Z,86.73
2022-11-29T11:30:50.899Z,86.49
2022-11-29T11:33:53.659Z,86.91
2022-11-29T11:37:19.036Z,86.60
2022-11-29T11:40:28.937Z,87.09
2022-11-29T11:43:34.042Z,87.92
2022-11-29T11:46:48.302Z,88.94
2022-11-29T11:49:55.950Z,88.22
2022-11-29T11:53:02.269Z,89.25
2022-11-29T11:56:07.789Z,88.61
2022-11-29T11:59:20.006Z,87.78
2022-11-29T12:02:35.940Z,87.80
2022-11-29T12:05:41.449Z,87.70
2022-11-29T12:08:49.400Z,86.82
2022-11-29T12:12:00.527Z,88.88
2022-11-29T12:15:08.563Z,89.40
2022-11-29T12:18:14.269Z,88.56
2022-11-29T12:21:22.757Z,88.25
2022-11-29T12:24:31.400Z,86.18
2022-11-29T12:27:34.121Z,85.92
2022-11-29T12:30:41.992Z,86.00
2022-11-29T12:33:50.882Z,85.38
2022-11-29T12:36:59.740Z,86.02
2022-11-29T12:40:06.719Z,86.39
2022-11-29T12:43:18.644Z,85.78
2022-11-29T12:46:26.334Z,85.17
2022-11-29T12:49:34.549Z,86.01
2022-11-29T12:52:45.410Z,86.61
2022-11-29T12:55:57.263Z,87.32
2022-11-29T12:59:29.576Z,86.30
2022-11-29T13:02:44.442Z,86.38
2022-11-29T13:05:58.372Z,88.32
2022-11-29T13:09:32.870Z,87.63
2022-11-29T13:12:39.897Z,86.88
2022-11-29T13:16:31.247Z,87.36
2022-11-29T13:19:57.592Z,86.83
2022-11-29T13:23:08.687Z,86.32
2022-11-29T13:26:12.866Z,86.73
2022-11-29T13:29:18.211Z,86.46
2022-11-29T13:32:31.668Z,85.27
2022-11-29T13:35:43.088Z,86.66
2022-11-29T13:38:57.140Z,85.98
2022-11-29T13:42:08.600Z,86.64
2022-11-29T13:45:21.462Z,87.02
2022-11-29T13:48:45.876Z,87.83
2022-11-29T13:52:04.551Z,88.65
2022-11-29T13:55:31.733Z,88.91
2022-11-29T13:58:37.273Z,89.39
2022-11-29T14:01:45.810Z,88.33
2022-11-29T14:04:48.556Z,87.94
2022-11-29T14:08:26.220Z,88.56
2022-11-29T14:11:33.577Z,89.32
2022-11-29T14:14:48.373Z,90.42
2022-11-29T14:17:54.533Z,89.82
2022-11-29T14:20:58.246Z,88.37
2022-11-29T14:24:41.080Z,89.25
2022-11-29T14:28:04.529Z,89.97
2022-11-29T14:31:08.074Z,89.53
2022-11-29T14:34:15.905Z,89.98
2022-11-29T14:37:30.805Z,89.62
2022-11-29T14:40:44.410Z,89.25
2022-11-29T14:43:48.783Z,90.87
2022-11-29T14:47:01.004Z,90.27
2022-11-29T14:50:09.337Z,91.06
2022-11-29T14:53:29.687Z,90.52
2022-11-29T14:56:39.172Z,91.75
2022-11-29T14:59:49.368Z,92.47
2022-11-29T15:02:55.298Z,92.49
2022-11-29T15:05:59.780Z,92.08
2022-11-29T15:09:05.940Z,91.31
2022-11-29T15:12:17.070Z,91.23
2022-11-29T15:15:32.824Z,91.39
2022-11-29T15:18:55.086Z,89.92
2022-11-29T15:22:07.403Z,90.08
2022-11-29T15:25:12.872Z,90.66
2022-11-29T15:28:21.953Z,90.41
2022-11-29T15:31:24.582Z,90.43
2022-11-29T15:34:32.004Z,90.41
2022-11-29T15:37:44.463Z,90.74
2022-11-29T15:40:52.768Z,90.90
2022-11-29T15:43:59.326Z,90.45
2022-11-29T15:47:21.672Z,90.60
2022-11-29T15:50:26.137Z,90.56
2022-11-29T15:53:34.178Z,91.04
2022-11-29T15:56:42.469Z,90.93
2022-11-29T15:59:48.905Z,90.77
2022-11-29T16:02:55.998Z,90.60
2022-11-29T16:06:05.825Z,91.13
2022-11-29T16:09:11.950Z,91.54
2022-11-29T16:12:17.564Z,92.24
2022-11-29T16:15:28.925Z,92.01
2022-11-29T16:18:33.660Z,91.75
2022-11-29T16:21:36.271Z,92.06
2022-11-29T16:24:40.255Z,91.41
2022-11-29T16:27:43.317Z,90.98
2022-11-29T16:30:47.806Z,91.44
2022-11-29T16:33:52.541Z,91.48
2022-11-29T16:37:01.901Z,91.07
2022-11-29T16:40:06.003Z,90.91
2022-11-29T16:43:20.579Z,91.28
2022-11-29T16:46:33.925Z,90.74
2022-11-29T16:49:36.819Z,90.55
2022-11-29T16:52:39.294Z,91.48
2022-11-29T16:55:41.798Z,90.98
2022-11-29T16:59:20.491Z,91.29
2022-11-29T17:02:12.232Z,90.08
2022-11-29T17:05:14.961Z,90.40
2022-11-29T17:08:17.652Z,90.15
2022-11-29T17:11:20.189Z,90.35
2022-11-29T17:14:23.163Z,90.64
2022-11-29T17:17:27.082Z,90.57
2022-11-29T17:20:29.547Z,90.56
2022-11-29T17:23:32.629Z,90.58
2022-11-29T17:26:35.183Z,90.28
2022-11-29T17:29:37.619Z,90.01
2022-11-29T17:32:41.675Z,90.39
2022-11-29T17:35:44.602Z,91.05
2022-11-29T17:38:47.794Z,90.84
2022-11-29T17:41:50.588Z,91.18
2022-11-29T17:44:53.086Z,91.41
2022-11-29T17:47:58.907Z,91.40
2022-11-29T17:51:01.999Z,91.09
2022-11-29T17:54:04.844Z,90.06
2022-11-29T17:57:07.543Z,89.87
2022-11-29T18:00:13.366Z,89.99
2022-11-29T18:03:23.087Z,90.24
2022-11-29T18:06:30.505Z,89.96
2022-11-29T18:09:33.285Z,89.63
2022-11-29T18:12:36.263Z,90.80
2022-11-29T18:15:38.816Z,90.94
2022-11-29T18:18:43.390Z,90.74
2022-11-29T18:21:46.634Z,90.68
2022-11-29T18:24:50.672Z,90.58
2022-11-29T18:27:53.307Z,90.87
2022-11-29T18:30:56.544Z,91.19
2022-11-29T18:34:06.223Z,91.03
2022-11-29T18:37:15.277Z,90.95
2022-11-29T18:40:20.855Z,90.40
2022-11-29T18:43:23.557Z,89.72
2022-11-29T18:46:32.140Z,89.66
2022-11-29T18:49:36.424Z,89.60
2022-11-29T18:52:40.822Z,89.38
2022-11-29T18:55:43.651Z,89.69
2022-11-29T18:58:47.787Z,90.12
2022-11-29T19:01:50.926Z,90.38
2022-11-29T19:04:55.088Z,90.43
2022-11-29T19:07:57.837Z,90.64
2022-11-29T19:11:04.149Z,89.80
2022-11-29T19:14:11.583Z,90.22
2022-11-29T19:17:14.314Z,90.61
2022-11-29T19:20:18.532Z,90.66
2022-11-29T19:23:21.808Z,90.35
2022-11-29T19:26:26.683Z,90.24
2022-11-29T19:29:29.196Z,90.84
2022-11-29T19:32:31.801Z,91.32
2022-11-29T19:35:36.006Z,91.48
2022-11-29T19:38:39.687Z,90.86
2022-11-29T19:41:44.889Z,90.84
2022-11-29T19:45:15.294Z,90.86
2022-11-29T19:48:10.421Z,91.29
2022-11-29T19:51:18.931Z,90.90
2022-11-29T19:54:21.912Z,91.32
2022-11-29T19:57:24.395Z,91.96
2022-11-29T20:00:28.215Z,92.00
2022-11-29T20:03:30.906Z,91.58
2022-11-29T20:06:35.067Z,92.07
2022-11-29T20:09:38.332Z,91.57
2022-11-29T20:12:42.067Z,90.73
2022-11-29T20:15:44.985Z,90.80
2022-11-29T20:18:51.222Z,91.05
2022-11-29T20:21:56.252Z,91.09
2022-11-29T20:24:59.011Z,91.05
2022-11-29T20:28:04.072Z,91.57
2022-11-29T20:31:07.848Z,91.02
2022-11-29T20:34:12.220Z,90.54
2022-11-29T20:37:32.886Z,90.44
2022-11-29T20:40:43.197Z,90.79
2022-11-29T20:43:50.436Z,90.54
2022-11-29T20:46:53.202Z,89.58
2022-11-29T20:49:57.177Z,89.07
2022-11-29T20:53:22.195Z,89.01
2022-11-29T20:56:24.929Z,89.11
2022-11-29T20:59:28.440Z,89.73
2022-11-29T21:02:31.159Z,88.85
2022-11-29T21:05:37.317Z,89.95
2022-11-29T21:08:41.513Z,89.65
2022-11-29T21:11:44.570Z,89.44
2022-11-29T21:14:47.798Z,90.26
2022-11-29T21:17:50.973Z,90.50
2022-11-29T21:21:02.961Z,90.37
2022-11-29T21:24:18.005Z,90.08
2022-11-29T21:27:26.798Z,90.85
2022-11-29T21:30:29.905Z,89.94
2022-11-29T21:33:34.104Z,89.78
2022-11-29T21:36:37.327Z,89.75
2022-11-29T21:39:41.809Z,89.05
2022-11-29T21:42:44.214Z,89.25
2022-11-29T21:45:47.900Z,89.54
2022-11-29T21:48:51.921Z,89.36
2022-11-29T21:51:57.488Z,89.68
2022-11-29T21:55:01.419Z,88.72
2022-11-29T21:58:03.838Z,89.83
2022-11-29T22:01:11.761Z,89.26
2022-11-29T22:04:14.349Z,89.26
2022-11-29T22:07:16.875Z,89.58
2022-11-29T22:10:20.784Z,89.56
2022-11-29T22:13:23.304Z,89.70
2022-11-29T22:16:26.099Z,89.36
2022-11-29T22:19:30.660Z,90.01
2022-11-29T22:22:33.309Z,89.56
2022-11-29T22:25:37.075Z,89.56
2022-11-29T22:28:39.511Z,89.26
2022-11-29T22:31:42.480Z,89.90
2022-11-29T22:34:45.172Z,89.75
2022-11-29T22:37:48.030Z,88.91
2022-11-29T22:40:52.475Z,89.68
2022-11-29T22:43:55.003Z,89.30
2022-11-29T22:46:57.493Z,88.56
2022-11-29T22:50:01.041Z,88.63
2022-11-29T22:53:04.511Z,87.77
2022-11-29T22:56:10.765Z,87.61
2022-11-29T22:59:14.001Z,88.33
2022-11-29T23:02:16.423Z,87.75
2022-11-29T23:05:18.863Z,87.79
2022-11-29T23:08:21.320Z,87.77
2022-11-29T23:11:27.286Z,87.67
2022-11-29T23:14:29.720Z,87.86
2022-11-29T23:17:32.154Z,87.66
2022-11-29T23:20:34.763Z,87.87
2022-11-29T23:23:38.352Z,87.42
2022-11-29T23:26:44.012Z,87.41
2022-11-29T23:29:46.420Z,87.39
2022-11-29T23:32:48.840Z,87.31
2022-11-29T23:35:51.578Z,87.04
2022-11-29T23:38:54.146Z,86.97
2022-11-29T23:41:57.881Z,86.10
2022-11-29T23:45:00.348Z,86.22
2022-11-29T23:48:02.891Z,86.67
2022-11-29T23:51:05.347Z,86.83
2022-11-29T23:54:07.992Z,86.35
2022-11-29T23:57:11.774Z,87.13
